createdAt,value
2023-01-15T00:00:55.282Z,100775.31
2023-01-15T00:03:30.208Z,100775.84
2023-01-15T00:06:06.064Z,100766.91
2023-01-15T00:08:40.513Z,100771.25
2023-01-15T00:11:15.257Z,100772.13
2023-01-15T00:13:50.512Z,100773.63
2023-01-15T00:16:26.506Z,100771.28
2023-01-15T00:19:04.502Z,100774.44
2023-01-15T00:21:40.352Z,100773.63
2023-01-15T00:24:32.571Z,100774.06
2023-01-15T00:27:24.305Z,100760.03
2023-01-15T00:30:00.994Z,100772.87
2023-01-15T00:32:35.235Z,100763.97
2023-01-15T00:35:14.042Z,100755.81
2023-01-15T00:37:51.458Z,100748.13
2023-01-15T00:40:28.076Z,100746.47
2023-01-15T00:43:02.248Z,100744.19
2023-01-15T00:45:36.765Z,100738.31
2023-01-15T00:48:10.958Z,100730.22
2023-01-15T00:50:48.146Z,100730.59
2023-01-15T00:53:23.977Z,100734.81
2023-01-15T00:55:58.626Z,100731.03
2023-01-15T00:58:32.935Z,100724.78
2023-01-15T01:01:07.958Z,100725.59
2023-01-15T01:03:42.370Z,100720.88
2023-01-15T01:06:17.745Z,100734.91
2023-01-15T01:08:53.402Z,100729.78
2023-01-15T01:11:33.060Z,100724.00
2023-01-15T01:14:07.335Z,100727.88
2023-01-15T01:16:43.258Z,100730.97
2023-01-15T01:19:20.973Z,100736.00
2023-01-15T01:21:56.770Z,100721.28
2023-01-15T01:24:32.533Z,100722.84
2023-01-15T01:27:07.045Z,100722.91
2023-01-15T01:29:41.418Z,100724.06
2023-01-15T01:32:16.815Z,100706.59
2023-01-15T01:34:50.988Z,100717.06
2023-01-15T01:37:25.455Z,100710.03
2023-01-15T01:40:02.167Z,100698.78
2023-01-15T01:42:37.158Z,100714.72
2023-01-15T01:45:25.131Z,100715.16
2023-01-15T01:48:03.885Z,100704.72
2023-01-15T01:50:40.812Z,100698.41
2023-01-15T01:53:19.135Z,100691.06
2023-01-15T01:55:56.711Z,100691.41
2023-01-15T01:58:33.454Z,100693.81
2023-01-15T02:01:08.124Z,100681.78
2023-01-15T02:03:42.949Z,100686.81
2023-01-15T02:06:17.791Z,100672.88
2023-01-15T02:08:52.243Z,100667.87
2023-01-15T02:11:29.146Z,100669.84
2023-01-15T02:14:10.892Z,100664.37
2023-01-15T02:16:49.744Z,100659.12
2023-01-15T02:19:38.886Z,100653.22
2023-01-15T02:22:28.898Z,100659.00
2023-01-15T02:25:12.325Z,100656.31
2023-01-15T02:27:53.310Z,100641.97
2023-01-15T02:30:33.389Z,100637.69
2023-01-15T02:33:11.567Z,100633.44
2023-01-15T02:35:51.713Z,100630.34
2023-01-15T02:38:29.789Z,100631.88
2023-01-15T02:41:16.352Z,100634.22
2023-01-15T02:43:57.785Z,100631.59
2023-01-15T02:46:35.194Z,100623.47
2023-01-15T02:49:13.698Z,100615.75
2023-01-15T02:51:55.378Z,100626.22
2023-01-15T02:54:36.519Z,100638.25
2023-01-15T02:57:12.838Z,100630.50
2023-01-15T02:59:51.421Z,100623.94
2023-01-15T03:02:32.292Z,100625.84
2023-01-15T03:05:10.987Z,100622.75
2023-01-15T03:07:51.405Z,100613.75
2023-01-15T03:10:37.502Z,100609.50
2023-01-15T03:13:16.829Z,100600.28
2023-01-15T03:16:18.159Z,100597.53
2023-01-15T03:18:57.715Z,100600.66
2023-01-15T03:21:41.161Z,100601.84
2023-01-15T03:24:20.409Z,100582.47
2023-01-15T03:26:55.916Z,100595.66
2023-01-15T03:29:35.893Z,100594.09
2023-01-15T03:32:12.318Z,100587.09
2023-01-15T03:34:51.384Z,100583.97
2023-01-15T03:37:28.787Z,100591.78
2023-01-15T03:40:05.621Z,100582.81
2023-01-15T03:43:10.964Z,100571.56
2023-01-15T03:45:49.145Z,100573.16
2023-01-15T03:48:32.285Z,100569.28
2023-01-15T03:51:16.504Z,100568.53
2023-01-15T03:53:55.107Z,100563.09
2023-01-15T03:56:36.896Z,100556.91
2023-01-15T03:59:14.726Z,100563.09
2023-01-15T04:01:51.867Z,100559.91
2023-01-15T04:04:30.157Z,100547.53
2023-01-15T04:07:05.501Z,100538.25
2023-01-15T04:09:44.093Z,100547.16
2023-01-15T04:12:18.621Z,100543.66
2023-01-15T04:14:53.339Z,100549.06
2023-01-15T04:17:27.741Z,100535.94
2023-01-15T04:20:07.609Z,100532.09
2023-01-15T04:22:42.843Z,100532.53
2023-01-15T04:25:17.561Z,100526.72
2023-01-15T04:27:51.794Z,100524.41
2023-01-15T04:30:26.865Z,100534.09
2023-01-15T04:33:01.021Z,100535.69
2023-01-15T04:35:39.010Z,100536.81
2023-01-15T04:38:13.496Z,100530.59
2023-01-15T04:41:03.005Z,100533.75
2023-01-15T04:43:54.756Z,100527.16
2023-01-15T04:46:29.274Z,100515.53
2023-01-15T04:49:03.873Z,100518.66
2023-01-15T04:51:40.498Z,100510.12
2023-01-15T04:54:16.464Z,100510.16
2023-01-15T04:56:53.935Z,100503.62
2023-01-15T04:59:28.896Z,100502.81
2023-01-15T05:02:06.339Z,100506.72
2023-01-15T05:04:42.455Z,100490.12
2023-01-15T05:07:18.479Z,100491.25
2023-01-15T05:09:54.953Z,100497.84
2023-01-15T05:12:30.541Z,100501.34
2023-01-15T05:15:05.026Z,100494.72
2023-01-15T05:17:39.616Z,100494.34
2023-01-15T05:20:15.959Z,100490.47
2023-01-15T05:22:53.315Z,100485.41
2023-01-15T05:25:27.445Z,100482.72
2023-01-15T05:28:01.946Z,100485.38
2023-01-15T05:30:37.321Z,100478.78
2023-01-15T05:33:11.905Z,100474.19
2023-01-15T05:35:46.128Z,100473.34
2023-01-15T05:38:22.059Z,100479.62
2023-01-15T05:40:56.364Z,100472.59
2023-01-15T05:43:30.784Z,100456.31
2023-01-15T05:46:05.245Z,100461.44
2023-01-15T05:48:39.908Z,100469.88
2023-01-15T05:51:14.272Z,100452.06
2023-01-15T05:53:50.282Z,100444.00
2023-01-15T05:56:24.743Z,100448.56
2023-01-15T05:58:59.364Z,100452.81
2023-01-15T06:01:34.005Z,100445.84
2023-01-15T06:04:08.921Z,100453.22
2023-01-15T06:06:43.967Z,100447.00
2023-01-15T06:09:20.528Z,100443.44
2023-01-15T06:11:55.797Z,100443.87
2023-01-15T06:14:30.394Z,100452.44
2023-01-15T06:17:04.628Z,100451.66
2023-01-15T06:19:39.100Z,100448.50
2023-01-15T06:22:13.368Z,100451.22
2023-01-15T06:24:49.192Z,100427.75
2023-01-15T06:27:23.394Z,100433.09
2023-01-15T06:29:59.386Z,100432.59
2023-01-15T06:32:33.660Z,100433.13
2023-01-15T06:35:08.855Z,100444.25
2023-01-15T06:37:43.060Z,100438.06
2023-01-15T06:40:21.721Z,100437.91
2023-01-15T06:43:16.475Z,100440.69
2023-01-15T06:46:08.683Z,100439.25
2023-01-15T06:48:43.306Z,100439.63
2023-01-15T06:51:20.593Z,100432.34
2023-01-15T06:53:54.775Z,100442.12
2023-01-15T06:56:30.760Z,100438.62
2023-01-15T06:59:05.029Z,100432.78
2023-01-15T07:02:55.905Z,100441.75
2023-01-15T07:05:31.042Z,100438.28
2023-01-15T07:08:05.967Z,100435.91
2023-01-15T07:10:41.418Z,100431.28
2023-01-15T07:13:15.567Z,100436.06
2023-01-15T07:15:50.159Z,100430.28
2023-01-15T07:18:26.115Z,100429.44
2023-01-15T07:21:01.242Z,100429.47
2023-01-15T07:23:36.069Z,100439.12
2023-01-15T07:26:10.657Z,100437.16
2023-01-15T07:28:45.002Z,100425.94
2023-01-15T07:31:20.188Z,100437.47
2023-01-15T07:33:57.300Z,100431.88
2023-01-15T07:36:31.951Z,100416.47
2023-01-15T07:39:06.766Z,100415.22
2023-01-15T07:41:59.641Z,100416.72
2023-01-15T07:44:51.394Z,100405.50
2023-01-15T07:47:50.459Z,100412.63
2023-01-15T07:50:27.679Z,100423.34
2023-01-15T07:53:02.800Z,100418.19
2023-01-15T07:55:37.709Z,100411.38
2023-01-15T07:58:12.205Z,100421.88
2023-01-15T08:00:49.047Z,100420.06
2023-01-15T08:03:23.591Z,100417.41
2023-01-15T08:05:59.628Z,100418.47
2023-01-15T08:08:34.119Z,100415.91
2023-01-15T08:11:25.248Z,100417.16
2023-01-15T08:14:17.257Z,100413.56
2023-01-15T08:16:51.494Z,100400.25
2023-01-15T08:19:26.982Z,100399.03
2023-01-15T08:22:02.789Z,100404.16
2023-01-15T08:24:37.288Z,100404.53
2023-01-15T08:27:11.616Z,100392.28
2023-01-15T08:29:51.142Z,100396.87
2023-01-15T08:32:25.787Z,100389.03
2023-01-15T08:35:00.331Z,100405.00
2023-01-15T08:37:36.252Z,100412.72
2023-01-15T08:40:12.984Z,100401.03
2023-01-15T08:42:48.664Z,100396.59
2023-01-15T08:45:23.382Z,100394.13
2023-01-15T08:47:58.406Z,100392.53
2023-01-15T08:50:33.833Z,100386.41
2023-01-15T08:53:13.443Z,100367.69
2023-01-15T08:55:48.394Z,100378.12
2023-01-15T08:58:42.906Z,100369.03
2023-01-15T09:01:37.664Z,100364.03
2023-01-15T09:04:15.737Z,100362.31
2023-01-15T09:06:50.691Z,100366.97
2023-01-15T09:09:26.408Z,100367.56
2023-01-15T09:12:00.973Z,100364.12
2023-01-15T09:15:00.822Z,100358.22
2023-01-15T09:17:30.081Z,100350.41
2023-01-15T09:20:04.998Z,100347.69
2023-01-15T09:22:40.191Z,100347.69
2023-01-15T09:25:16.472Z,100335.19
2023-01-15T09:27:51.338Z,100332.81
2023-01-15T09:30:25.664Z,100322.56
2023-01-15T09:33:00.157Z,100314.63
2023-01-15T09:35:34.387Z,100312.94
2023-01-15T09:38:09.244Z,100304.97
2023-01-15T09:40:51.038Z,100301.28
2023-01-15T09:43:50.835Z,100289.13
2023-01-15T09:46:34.979Z,100286.75
2023-01-15T09:49:24.227Z,100273.91
2023-01-15T09:52:07.335Z,100283.12
2023-01-15T09:55:01.568Z,100265.59
2023-01-15T09:57:38.486Z,100259.62
2023-01-15T10:00:19.621Z,100264.94
2023-01-15T10:02:56.647Z,100255.56
2023-01-15T10:05:33.949Z,100255.16
2023-01-15T10:08:16.048Z,100248.59
2023-01-15T10:10:56.604Z,100241.59
2023-01-15T10:13:35.585Z,100238.09
2023-01-15T10:16:11.325Z,100230.97
2023-01-15T10:18:45.795Z,100223.31
2023-01-15T10:21:31.237Z,100220.13
2023-01-15T10:24:12.159Z,100202.59
2023-01-15T10:26:54.202Z,100198.66
2023-01-15T10:29:38.470Z,100181.50
2023-01-15T10:32:26.069Z,100191.06
2023-01-15T10:35:25.697Z,100179.59
2023-01-15T10:38:08.571Z,100164.78
2023-01-15T10:41:37.919Z,100163.34
2023-01-15T10:44:19.696Z,100143.06
2023-01-15T10:47:01.104Z,100151.59
2023-01-15T10:49:36.448Z,100147.12
2023-01-15T10:52:23.680Z,100143.72
2023-01-15T10:55:04.995Z,100134.75
2023-01-15T10:57:46.884Z,100127.63
2023-01-15T11:00:22.564Z,100124.16
2023-01-15T11:03:04.233Z,100120.41
2023-01-15T11:05:39.877Z,100116.50
2023-01-15T11:09:06.785Z,100103.06
2023-01-15T11:11:44.994Z,100108.53
2023-01-15T11:14:42.797Z,100108.63
2023-01-15T11:17:34.565Z,100101.53
2023-01-15T11:20:21.800Z,100096.59
2023-01-15T11:22:56.832Z,100090.94
2023-01-15T11:25:33.529Z,100086.41
2023-01-15T11:28:09.985Z,100082.06
2023-01-15T11:30:45.421Z,100067.75
2023-01-15T11:33:24.649Z,100063.16
2023-01-15T11:36:02.189Z,100057.56
2023-01-15T11:38:45.871Z,100044.25
2023-01-15T11:41:25.276Z,100025.09
2023-01-15T11:44:17.867Z,100009.91
2023-01-15T11:47:14.459Z,100016.91
2023-01-15T11:50:09.261Z,100007.50
2023-01-15T11:52:49.476Z,100010.47
2023-01-15T11:55:27.586Z,100006.53
2023-01-15T11:58:02.998Z,99996.03
2023-01-15T12:00:44.740Z,100001.50
2023-01-15T12:03:21.846Z,99998.81
2023-01-15T12:06:00.453Z,100000.72
2023-01-15T12:08:49.447Z,99998.44
2023-01-15T12:11:44.535Z,99998.38
2023-01-15T12:14:40.747Z,99992.81
2023-01-15T12:17:30.987Z,99992.03
2023-01-15T12:20:19.594Z,99994.13
2023-01-15T12:23:22.631Z,100002.09
2023-01-15T12:26:08.807Z,100004.69
2023-01-15T12:28:51.522Z,99999.97
2023-01-15T12:31:33.302Z,99995.13
2023-01-15T12:34:17.795Z,99996.00
2023-01-15T12:36:56.438Z,99991.97
2023-01-15T12:39:35.104Z,99998.91
2023-01-15T12:42:34.622Z,99982.72
2023-01-15T12:45:11.886Z,99981.16
2023-01-15T12:47:52.173Z,99980.94
2023-01-15T12:50:34.399Z,99985.94
2023-01-15T12:53:18.092Z,99981.38
2023-01-15T12:55:57.791Z,99974.38
2023-01-15T12:58:44.973Z,99970.69
2023-01-15T13:01:25.642Z,99965.63
2023-01-15T13:04:11.875Z,99961.16
2023-01-15T13:06:50.325Z,99962.37
2023-01-15T13:09:40.037Z,99952.63
2023-01-15T13:12:15.647Z,99948.81
2023-01-15T13:14:51.617Z,99957.66
2023-01-15T13:17:33.444Z,99951.19
2023-01-15T13:20:26.259Z,99949.72
2023-01-15T13:23:10.146Z,99944.19
2023-01-15T13:26:01.479Z,99939.22
2023-01-15T13:28:48.513Z,99940.78
2023-01-15T13:31:59.171Z,99939.81
2023-01-15T13:34:39.958Z,99940.91
2023-01-15T13:37:24.148Z,99932.69
2023-01-15T13:40:03.639Z,99935.56
2023-01-15T13:42:40.863Z,99932.94
2023-01-15T13:45:33.424Z,99938.09
2023-01-15T13:48:14.587Z,99934.09
2023-01-15T13:50:54.728Z,99933.59
2023-01-15T13:53:32.065Z,99924.81
2023-01-15T13:56:09.661Z,99916.75
2023-01-15T13:58:54.830Z,99918.28
2023-01-15T14:01:35.380Z,99920.69
2023-01-15T14:04:16.461Z,99922.47
2023-01-15T14:06:52.489Z,99914.59
2023-01-15T14:09:32.092Z,99918.00
2023-01-15T14:12:16.478Z,99914.72
2023-01-15T14:15:17.695Z,99918.13
2023-01-15T14:18:15.524Z,99911.22
2023-01-15T14:21:08.957Z,99918.56
2023-01-15T14:24:07.899Z,99912.44
2023-01-15T14:26:51.552Z,99913.22
2023-01-15T14:29:56.233Z,99913.44
2023-01-15T14:32:49.438Z,99905.34
2023-01-15T14:35:26.316Z,99902.75
2023-01-15T14:38:06.556Z,99897.41
2023-01-15T14:40:54.412Z,99908.56
2023-01-15T14:43:33.522Z,99909.78
2023-01-15T14:46:16.341Z,99906.22
2023-01-15T14:48:51.222Z,99919.03
2023-01-15T14:51:28.896Z,99918.59
2023-01-15T14:54:07.602Z,99918.13
2023-01-15T14:56:46.721Z,99912.75
2023-01-15T14:59:25.902Z,99924.81
2023-01-15T15:03:05.445Z,99898.97
2023-01-15T15:05:44.459Z,99898.97
2023-01-15T15:08:20.991Z,99904.03
2023-01-15T15:10:57.432Z,99899.34
2023-01-15T15:13:37.421Z,99899.56
2023-01-15T15:16:19.604Z,99895.97
2023-01-15T15:19:01.828Z,99885.16
2023-01-15T15:21:41.889Z,99888.75
2023-01-15T15:24:22.742Z,99889.72
2023-01-15T15:26:57.415Z,99885.03
2023-01-15T15:29:31.695Z,99884.28
2023-01-15T15:32:06.562Z,99892.25
2023-01-15T15:34:48.424Z,99890.81
2023-01-15T15:37:26.289Z,99873.69
2023-01-15T15:40:04.124Z,99882.62
2023-01-15T15:43:01.670Z,99882.00
2023-01-15T15:45:53.460Z,99881.53
2023-01-15T15:48:45.733Z,99889.75
2023-01-15T15:51:36.378Z,99882.19
2023-01-15T15:54:15.922Z,99881.00
2023-01-15T15:56:55.907Z,99866.91
2023-01-15T15:59:33.952Z,99869.78
2023-01-15T16:02:18.294Z,99873.69
2023-01-15T16:04:55.015Z,99875.56
2023-01-15T16:07:33.850Z,99869.34
2023-01-15T16:10:16.887Z,99874.56
2023-01-15T16:12:54.231Z,99873.22
2023-01-15T16:15:32.233Z,99868.84
2023-01-15T16:18:07.436Z,99863.19
2023-01-15T16:20:42.731Z,99861.97
2023-01-15T16:23:23.119Z,99864.16
2023-01-15T16:26:01.557Z,99867.78
2023-01-15T16:28:42.478Z,99858.06
2023-01-15T16:31:20.097Z,99867.31
2023-01-15T16:33:57.162Z,99858.81
2023-01-15T16:36:41.581Z,99857.72
2023-01-15T16:39:25.240Z,99853.00
2023-01-15T16:42:02.408Z,99861.44
2023-01-15T16:44:44.303Z,99858.38
2023-01-15T16:47:25.687Z,99863.50
2023-01-15T16:50:29.403Z,99846.69
2023-01-15T16:53:06.163Z,99853.12
2023-01-15T16:55:46.729Z,99858.16
2023-01-15T16:58:33.420Z,99846.03
2023-01-15T17:01:34.676Z,99855.41
2023-01-15T17:04:25.589Z,99854.78
2023-01-15T17:07:03.776Z,99860.22
2023-01-15T17:09:39.258Z,99862.94
2023-01-15T17:12:27.989Z,99862.09
2023-01-15T17:15:30.793Z,99870.69
2023-01-15T17:18:22.381Z,99868.06
2023-01-15T17:20:57.915Z,99868.19
2023-01-15T17:23:38.950Z,99865.44
2023-01-15T17:26:20.094Z,99862.28
2023-01-15T17:28:56.114Z,99871.78
2023-01-15T17:31:32.565Z,99863.72
2023-01-15T17:34:07.339Z,99867.31
2023-01-15T17:36:42.383Z,99871.25
2023-01-15T17:39:20.363Z,99863.94
2023-01-15T17:41:55.436Z,99880.09
2023-01-15T17:44:32.402Z,99872.22
2023-01-15T17:47:07.726Z,99871.37
2023-01-15T17:49:42.157Z,99869.19
2023-01-15T17:52:20.731Z,99863.81
2023-01-15T17:55:12.683Z,99873.81
2023-01-15T17:58:05.230Z,99875.62
2023-01-15T18:00:58.771Z,99881.09
2023-01-15T18:03:51.948Z,99883.84
2023-01-15T18:06:26.489Z,99888.41
2023-01-15T18:09:04.241Z,99897.81
2023-01-15T18:11:38.923Z,99881.72
2023-01-15T18:14:14.173Z,99887.22
2023-01-15T18:16:50.003Z,99889.75
2023-01-15T18:19:24.825Z,99905.19
2023-01-15T18:21:59.535Z,99900.34
2023-01-15T18:24:34.267Z,99909.37
2023-01-15T18:27:08.458Z,99906.31
2023-01-15T18:29:43.777Z,99902.13
2023-01-15T18:32:20.713Z,99895.06
2023-01-15T18:34:55.555Z,99901.16
2023-01-15T18:37:30.013Z,99900.28
2023-01-15T18:40:04.820Z,99904.56
2023-01-15T18:42:57.741Z,99905.88
2023-01-15T18:45:50.002Z,99914.84
2023-01-15T18:48:25.872Z,99918.34
2023-01-15T18:51:07.217Z,99917.69
2023-01-15T18:53:41.773Z,99929.06
2023-01-15T18:56:36.986Z,99934.63
2023-01-15T18:59:14.964Z,99937.56
2023-01-15T19:01:50.460Z,99938.44
2023-01-15T19:04:26.651Z,99942.28
2023-01-15T19:07:03.654Z,99932.22
2023-01-15T19:09:38.519Z,99938.88
2023-01-15T19:12:14.656Z,99939.53
2023-01-15T19:15:06.244Z,99949.91
2023-01-15T19:17:58.612Z,99938.00
2023-01-15T19:20:34.638Z,99937.69
2023-01-15T19:23:09.527Z,99942.59
2023-01-15T19:25:46.169Z,99929.16
2023-01-15T19:28:22.333Z,99907.44
2023-01-15T19:31:20.279Z,99918.78
2023-01-15T19:34:07.944Z,99923.94
2023-01-15T19:36:54.748Z,99927.09
2023-01-15T19:39:30.515Z,99904.41
2023-01-15T19:42:22.791Z,99913.56
2023-01-15T19:45:15.030Z,99912.56
2023-01-15T19:48:07.548Z,99916.91
2023-01-15T19:50:44.661Z,99913.97
2023-01-15T19:53:20.374Z,99914.63
2023-01-15T19:55:55.320Z,99918.13
2023-01-15T19:58:29.930Z,99917.50
2023-01-15T20:01:05.299Z,99940.09
2023-01-15T20:03:40.258Z,99957.09
2023-01-15T20:06:15.235Z,99949.59
2023-01-15T20:08:51.310Z,99942.69
2023-01-15T20:11:45.893Z,99956.56
2023-01-15T20:14:20.138Z,99954.38
2023-01-15T20:16:54.666Z,99961.47
2023-01-15T20:19:29.573Z,99966.62
2023-01-15T20:22:04.297Z,99964.22
2023-01-15T20:24:42.824Z,99960.50
2023-01-15T20:27:17.252Z,99951.94
2023-01-15T20:29:52.779Z,99962.34
2023-01-15T20:32:27.313Z,99960.94
2023-01-15T20:35:02.219Z,99956.59
2023-01-15T20:37:39.422Z,99963.69
2023-01-15T20:40:16.910Z,99961.19
2023-01-15T20:43:08.879Z,99959.53
2023-01-15T20:45:43.551Z,99960.41
2023-01-15T20:48:44.497Z,99952.53
2023-01-15T20:51:20.127Z,99946.72
2023-01-15T20:53:54.890Z,99945.66
2023-01-15T20:56:31.069Z,99943.91
2023-01-15T20:59:05.656Z,99961.91
2023-01-15T21:01:41.795Z,99968.47
2023-01-15T21:04:16.263Z,99970.87
2023-01-15T21:06:51.013Z,99970.66
2023-01-15T21:09:25.314Z,99959.31
2023-01-15T21:12:01.776Z,99952.00
2023-01-15T21:14:36.201Z,99952.09
2023-01-15T21:17:11.446Z,99951.84
2023-01-15T21:19:46.200Z,99952.41
2023-01-15T21:22:20.874Z,99969.56
2023-01-15T21:24:55.152Z,99980.28
2023-01-15T21:27:32.172Z,99973.41
2023-01-15T21:30:08.891Z,99967.03
2023-01-15T21:32:46.463Z,99967.41
2023-01-15T21:35:20.808Z,99953.19
2023-01-15T21:37:55.347Z,99937.34
2023-01-15T21:40:29.575Z,99910.03
2023-01-15T21:43:23.174Z,99906.12
2023-01-15T21:46:03.384Z,99919.56
2023-01-15T21:48:37.916Z,99917.03
2023-01-15T21:51:12.276Z,99929.03
2023-01-15T21:53:46.859Z,99935.72
2023-01-15T21:56:21.465Z,99931.44
2023-01-15T21:58:57.849Z,99933.94
2023-01-15T22:01:32.193Z,99940.81
2023-01-15T22:04:07.640Z,99930.41
2023-01-15T22:06:41.868Z,99938.44
2023-01-15T22:09:17.888Z,99924.37
2023-01-15T22:11:52.786Z,99927.34
2023-01-15T22:14:30.263Z,99932.91
2023-01-15T22:17:05.549Z,99939.87
2023-01-15T22:19:40.051Z,99933.56
2023-01-15T22:22:14.496Z,99938.00
2023-01-15T22:24:48.917Z,99931.25
2023-01-15T22:27:23.114Z,99944.16
2023-01-15T22:29:59.087Z,99955.34
2023-01-15T22:32:33.321Z,99948.28
2023-01-15T22:35:09.029Z,99957.22
2023-01-15T22:37:43.483Z,99958.16
2023-01-15T22:40:18.136Z,99963.81
2023-01-15T22:42:52.332Z,99952.66
2023-01-15T22:45:28.245Z,99956.16
2023-01-15T22:48:02.428Z,99961.81
2023-01-15T22:50:38.367Z,99962.72
2023-01-15T22:53:12.951Z,99956.59
2023-01-15T22:55:55.565Z,99951.12
2023-01-15T22:58:29.805Z,99949.06
2023-01-15T23:03:08.241Z,99936.03
2023-01-15T23:05:43.209Z,99936.03
2023-01-15T23:08:17.602Z,99934.00
2023-01-15T23:10:52.104Z,99928.72
2023-01-15T23:13:26.320Z,99925.84
2023-01-15T23:16:02.062Z,99926.25
2023-01-15T23:18:37.959Z,99927.56
2023-01-15T23:21:15.316Z,99927.47
2023-01-15T23:23:53.837Z,99922.88
2023-01-15T23:26:31.842Z,99917.41
2023-01-15T23:29:06.828Z,99916.00
2023-01-15T23:31:41.314Z,99914.34
2023-01-15T23:34:17.101Z,99911.63
2023-01-15T23:36:51.539Z,99908.81
2023-01-15T23:39:27.229Z,99914.84
2023-01-15T23:42:21.701Z,99914.16
2023-01-15T23:45:13.320Z,99900.81
2023-01-15T23:47:47.961Z,99892.44
2023-01-15T23:50:24.978Z,99882.94
2023-01-15T23:52:59.475Z,99872.13
2023-01-15T23:55:33.639Z,99865.03
2023-01-15T23:58:08.304Z,99863.50
